Terminal Aerodrome Forecast
Issued by NWS

Home | Current Version | Previous Version | Text Only | Print | Product List | Glossary On
Versions: 1 2 3 4 5 6 7 8 9 10 11 12 13 14 15 16 17 18 19 20 21 22 23 24 25 26
000
FTAK31 PANC 191617 AAA
TAFATK
TAF AMD
PATK 191617Z 1916/2012 VRB05KT 4SM -RA SCT010 OVC040
      TEMPO 1916/1918 1SM -RA BR BKN010
     FM192000 21004KT P6SM -SHRA SCT025 BKN060=

USA.gov is the U.S. government's official web portal to all federal, state and local government web resources and services.